createdAt,value
2022-08-03T00:01:34.870Z,25.49
2022-08-03T00:04:01.906Z,25.67
2022-08-03T00:06:28.480Z,25.43
2022-08-03T00:08:55.055Z,25.17
2022-08-03T00:11:21.651Z,25.24
2022-08-03T00:13:48.463Z,25.16
2022-08-03T00:16:15.373Z,25.08
2022-08-03T00:18:41.844Z,25.41
2022-08-03T00:21:08.447Z,25.37
2022-08-03T00:23:52.510Z,25.24
2022-08-03T00:26:20.781Z,25.18
2022-08-03T00:28:47.540Z,25.27
2022-08-03T00:31:14.047Z,24.74
2022-08-03T00:33:58.056Z,24.67
2022-08-03T00:36:26.969Z,24.96
2022-08-03T00:38:53.562Z,24.71
2022-08-03T00:41:20.066Z,24.53
2022-08-03T00:43:47.491Z,24.45
2022-08-03T00:46:17.713Z,24.80
2022-08-03T00:48:47.353Z,25.01
2022-08-03T00:51:14.070Z,24.95
2022-08-03T00:53:41.184Z,24.82
2022-08-03T00:56:07.815Z,24.79
2022-08-03T00:58:34.467Z,24.93
2022-08-03T01:01:01.085Z,24.75
2022-08-03T01:03:27.748Z,24.71
2022-08-03T01:06:18.333Z,24.92
2022-08-03T01:08:59.903Z,24.90
2022-08-03T01:11:26.322Z,24.87
2022-08-03T01:14:34.685Z,24.70
2022-08-03T01:17:22.071Z,24.72
2022-08-03T01:19:54.516Z,24.68
2022-08-03T01:22:23.758Z,24.65
2022-08-03T01:24:50.192Z,24.69
2022-08-03T01:27:29.327Z,24.61
2022-08-03T01:30:08.268Z,24.38
2022-08-03T01:33:12.449Z,24.53
2022-08-03T01:35:46.861Z,24.46
2022-08-03T01:38:28.854Z,24.51
2022-08-03T01:40:56.685Z,24.47
2022-08-03T01:43:59.031Z,24.45
2022-08-03T01:46:17.075Z,24.46
2022-08-03T01:48:46.257Z,24.38
2022-08-03T01:51:15.552Z,24.39
2022-08-03T01:53:45.449Z,24.47
2022-08-03T01:56:13.978Z,24.43
2022-08-03T01:58:43.681Z,24.35
2022-08-03T02:01:11.931Z,24.25
2022-08-03T02:04:00.077Z,24.13
2022-08-03T02:06:59.814Z,24.05
2022-08-03T02:09:20.839Z,24.06
2022-08-03T02:11:47.963Z,24.01
2022-08-03T02:14:15.887Z,24.28
2022-08-03T02:16:44.626Z,24.13
2022-08-03T02:19:11.797Z,24.15
2022-08-03T02:21:57.408Z,24.25
2022-08-03T02:24:25.296Z,23.95
2022-08-03T02:26:55.499Z,24.03
2022-08-03T02:29:39.476Z,23.91
2022-08-03T02:32:12.461Z,24.10
2022-08-03T02:34:40.750Z,23.93
2022-08-03T02:37:10.258Z,23.88
2022-08-03T02:39:37.684Z,23.78
2022-08-03T02:42:08.561Z,23.84
2022-08-03T02:44:37.152Z,23.92
2022-08-03T02:47:07.390Z,24.01
2022-08-03T02:49:50.502Z,23.85
2022-08-03T02:52:21.039Z,23.76
2022-08-03T02:54:51.337Z,23.75
2022-08-03T02:57:19.958Z,23.75
2022-08-03T02:59:47.410Z,23.45
2022-08-03T03:02:16.929Z,23.62
2022-08-03T03:05:51.792Z,23.50
2022-08-03T03:07:39.131Z,23.74
2022-08-03T03:10:21.606Z,23.64
2022-08-03T03:12:50.356Z,23.58
2022-08-03T03:15:16.922Z,23.31
2022-08-03T03:17:44.122Z,23.49
2022-08-03T03:20:11.744Z,23.67
2022-08-03T03:22:40.104Z,23.58
2022-08-03T03:25:10.362Z,23.21
2022-08-03T03:27:37.122Z,23.30
2022-08-03T03:30:05.611Z,23.34
2022-08-03T03:32:32.528Z,23.40
2022-08-03T03:34:59.629Z,23.63
2022-08-03T03:37:29.336Z,23.67
2022-08-03T03:39:56.081Z,23.68
2022-08-03T03:42:23.411Z,23.56
2022-08-03T03:44:49.972Z,23.67
2022-08-03T03:47:16.784Z,23.45
2022-08-03T03:49:45.001Z,23.46
2022-08-03T03:52:11.686Z,23.61
2022-08-03T03:54:42.650Z,23.47
2022-08-03T03:57:13.789Z,23.44
2022-08-03T03:59:43.946Z,23.48
2022-08-03T04:02:11.868Z,23.55
2022-08-03T04:04:57.143Z,23.55
2022-08-03T04:07:43.422Z,23.27
2022-08-03T04:10:40.914Z,23.34
2022-08-03T04:13:10.695Z,23.24
2022-08-03T04:15:39.912Z,23.42
2022-08-03T04:18:09.821Z,23.15
2022-08-03T04:20:38.774Z,23.00
2022-08-03T04:23:15.417Z,23.22
2022-08-03T04:25:43.895Z,23.14
2022-08-03T04:28:30.450Z,23.24
2022-08-03T04:30:59.275Z,23.06
2022-08-03T04:33:29.209Z,23.09
2022-08-03T04:36:02.734Z,23.08
2022-08-03T04:38:32.833Z,22.89
2022-08-03T04:41:01.053Z,23.06
2022-08-03T04:43:28.685Z,23.42
2022-08-03T04:45:57.064Z,23.46
2022-08-03T04:48:24.394Z,23.08
2022-08-03T04:50:51.704Z,23.46
2022-08-03T04:53:18.217Z,23.54
2022-08-03T04:55:46.549Z,23.58
2022-08-03T04:58:13.065Z,23.62
2022-08-03T05:00:39.617Z,23.45
2022-08-03T05:03:23.770Z,23.86
2022-08-03T05:06:01.792Z,23.85
2022-08-03T05:08:36.854Z,24.03
2022-08-03T05:11:13.100Z,23.96
2022-08-03T05:13:39.608Z,24.06
2022-08-03T05:16:06.056Z,23.80
2022-08-03T05:18:32.491Z,24.12
2022-08-03T05:20:59.316Z,24.36
2022-08-03T05:23:25.820Z,23.70
2022-08-03T05:25:52.314Z,24.00
2022-08-03T05:28:18.978Z,24.27
2022-08-03T05:30:45.481Z,24.47
2022-08-03T05:33:11.957Z,24.40
2022-08-03T05:35:56.794Z,23.99
2022-08-03T05:38:28.644Z,24.64
2022-08-03T05:41:21.756Z,24.25
2022-08-03T05:43:44.173Z,24.77
2022-08-03T05:46:12.049Z,25.15
2022-08-03T05:48:39.774Z,25.01
2022-08-03T05:51:07.700Z,25.24
2022-08-03T05:53:34.968Z,25.59
2022-08-03T05:56:03.655Z,25.15
2022-08-03T05:58:42.274Z,25.11
2022-08-03T06:01:08.814Z,25.74
2022-08-03T06:03:35.347Z,25.78
2022-08-03T06:06:01.854Z,26.13
2022-08-03T06:08:28.409Z,26.64
2022-08-03T06:10:54.977Z,26.43
2022-08-03T06:13:22.022Z,27.27
2022-08-03T06:15:48.661Z,27.38
2022-08-03T06:18:15.119Z,28.22
2022-08-03T06:20:41.670Z,28.59
2022-08-03T06:23:08.156Z,28.65
2022-08-03T06:25:43.086Z,28.25
2022-08-03T06:28:18.952Z,28.66
2022-08-03T06:30:46.637Z,28.91
2022-08-03T06:33:16.692Z,28.65
2022-08-03T06:35:43.147Z,28.49
2022-08-03T06:38:12.964Z,28.93
2022-08-03T06:40:42.125Z,28.58
2022-08-03T06:43:12.674Z,29.04
2022-08-03T06:45:39.708Z,29.54
2022-08-03T06:48:08.206Z,29.73
2022-08-03T06:50:37.730Z,29.44
2022-08-03T06:53:05.350Z,29.33
2022-08-03T06:55:32.368Z,29.10
2022-08-03T06:57:59.756Z,29.51
2022-08-03T07:00:30.872Z,30.07
2022-08-03T07:02:58.411Z,30.32
2022-08-03T07:05:25.403Z,29.99
2022-08-03T07:07:55.735Z,30.61
2022-08-03T07:10:22.277Z,30.72
2022-08-03T07:12:55.596Z,30.30
2022-08-03T07:15:53.938Z,31.43
2022-08-03T07:18:10.872Z,30.46
2022-08-03T07:20:37.365Z,31.20
2022-08-03T07:23:03.815Z,31.92
2022-08-03T07:25:30.244Z,32.68
2022-08-03T07:27:56.808Z,32.53
2022-08-03T07:30:24.766Z,32.51
2022-08-03T07:32:51.279Z,33.01
2022-08-03T07:35:24.980Z,32.94
2022-08-03T07:37:54.861Z,32.90
2022-08-03T07:40:22.402Z,33.14
2022-08-03T07:42:52.102Z,33.01
2022-08-03T07:45:23.209Z,32.96
2022-08-03T07:47:53.723Z,33.12
2022-08-03T07:50:20.733Z,33.17
2022-08-03T07:52:51.485Z,32.82
2022-08-03T07:55:20.792Z,32.74
2022-08-03T07:57:48.074Z,33.61
2022-08-03T08:00:17.439Z,33.34
2022-08-03T08:02:44.523Z,33.60
2022-08-03T08:05:11.476Z,33.78
2022-08-03T08:07:38.829Z,34.42
2022-08-03T08:10:06.925Z,33.37
2022-08-03T08:12:33.626Z,34.33
2022-08-03T08:15:00.158Z,34.79
2022-08-03T08:17:26.861Z,33.73
2022-08-03T08:19:53.723Z,34.00
2022-08-03T08:22:30.146Z,32.96
2022-08-03T08:24:58.386Z,33.51
2022-08-03T08:27:24.937Z,33.04
2022-08-03T08:29:55.312Z,34.09
2022-08-03T08:32:24.046Z,34.48
2022-08-03T08:34:50.900Z,34.61
2022-08-03T08:37:17.455Z,33.92
2022-08-03T08:39:43.912Z,34.10
2022-08-03T08:42:10.548Z,33.34
2022-08-03T08:44:37.181Z,32.76
2022-08-03T08:47:04.441Z,34.09
2022-08-03T08:49:32.951Z,33.59
2022-08-03T08:52:01.617Z,33.44
2022-08-03T08:54:29.728Z,33.56
2022-08-03T08:57:01.844Z,33.00
2022-08-03T08:59:47.807Z,32.64
2022-08-03T09:02:14.790Z,33.32
2022-08-03T09:04:41.458Z,33.84
2022-08-03T09:07:19.709Z,33.07
2022-08-03T09:10:10.531Z,33.26
2022-08-03T09:12:42.174Z,33.65
2022-08-03T09:15:33.052Z,34.40
2022-08-03T09:18:04.095Z,33.98
2022-08-03T09:20:33.134Z,34.38
2022-08-03T09:23:18.998Z,33.82
2022-08-03T09:25:59.919Z,34.00
2022-08-03T09:29:01.649Z,33.85
2022-08-03T09:31:22.465Z,33.84
2022-08-03T09:33:49.425Z,34.50
2022-08-03T09:36:35.652Z,34.44
2022-08-03T09:39:06.336Z,34.42
2022-08-03T09:41:33.518Z,34.60
2022-08-03T09:44:00.051Z,34.90
2022-08-03T09:46:28.432Z,34.92
2022-08-03T09:49:11.908Z,34.69
2022-08-03T09:52:33.932Z,34.37
2022-08-03T09:54:30.647Z,34.15
2022-08-03T09:56:58.154Z,33.52
2022-08-03T09:59:32.800Z,34.00
2022-08-03T10:02:00.485Z,34.59
2022-08-03T10:04:27.696Z,33.99
2022-08-03T10:07:08.368Z,34.44
2022-08-03T10:09:38.070Z,33.75
2022-08-03T10:12:12.373Z,34.60
2022-08-03T10:14:41.885Z,33.70
2022-08-03T10:17:09.510Z,33.70
2022-08-03T10:19:36.450Z,33.88
2022-08-03T10:22:10.564Z,34.59
2022-08-03T10:24:39.254Z,34.50
2022-08-03T10:27:11.333Z,34.52
2022-08-03T10:29:39.654Z,33.66
2022-08-03T10:32:24.663Z,34.23
2022-08-03T10:34:59.884Z,35.07
2022-08-03T10:37:32.245Z,34.51
2022-08-03T10:40:00.578Z,34.84
2022-08-03T10:42:31.272Z,35.02
2022-08-03T10:45:06.860Z,35.28
2022-08-03T10:47:34.975Z,34.56
2022-08-03T10:50:02.191Z,35.14
2022-08-03T10:52:31.899Z,34.88
2022-08-03T10:55:18.975Z,35.23
2022-08-03T10:57:56.254Z,35.33
2022-08-03T11:00:27.230Z,35.17
2022-08-03T11:03:06.700Z,34.67
2022-08-03T11:05:36.512Z,34.23
2022-08-03T11:08:21.748Z,35.78
2022-08-03T11:10:49.732Z,35.38
2022-08-03T11:13:21.960Z,35.18
2022-08-03T11:15:50.873Z,35.36
2022-08-03T11:18:17.682Z,35.52
2022-08-03T11:20:47.169Z,35.20
2022-08-03T11:23:15.077Z,34.24
2022-08-03T11:26:18.103Z,34.68
2022-08-03T11:28:48.252Z,35.11
2022-08-03T11:31:48.777Z,35.04
2022-08-03T11:34:13.398Z,35.27
2022-08-03T11:37:17.873Z,33.92
2022-08-03T11:39:46.621Z,35.31
2022-08-03T11:42:22.131Z,34.88
2022-08-03T11:44:56.840Z,35.55
2022-08-03T11:47:26.928Z,34.40
2022-08-03T11:49:59.146Z,34.40
2022-08-03T11:52:27.322Z,34.67
2022-08-03T11:54:56.934Z,35.10
2022-08-03T11:59:17.464Z,35.22
2022-08-03T12:00:23.482Z,34.76
2022-08-03T12:03:00.761Z,34.69
2022-08-03T12:05:54.700Z,34.75
2022-08-03T12:08:27.119Z,35.36
2022-08-03T12:10:55.289Z,35.40
2022-08-03T12:14:45.594Z,35.41
2022-08-03T12:16:10.066Z,35.29
2022-08-03T12:18:37.104Z,35.22
2022-08-03T12:21:09.360Z,35.38
2022-08-03T12:23:37.939Z,34.23
2022-08-03T12:26:07.118Z,34.90
2022-08-03T12:28:37.791Z,35.40
2022-08-03T12:31:09.444Z,35.46
2022-08-03T12:33:56.039Z,34.97
2022-08-03T12:36:22.699Z,35.08
2022-08-03T12:39:04.300Z,34.73
2022-08-03T12:41:34.138Z,34.45
2022-08-03T12:44:05.390Z,35.38
2022-08-03T12:46:47.409Z,35.31
2022-08-03T12:49:17.072Z,35.41
2022-08-03T12:51:43.580Z,34.33
2022-08-03T12:54:24.331Z,34.91
2022-08-03T12:57:06.533Z,35.29
2022-08-03T12:59:49.866Z,35.03
2022-08-03T13:02:25.550Z,34.59
2022-08-03T13:04:54.491Z,34.64
2022-08-03T13:07:22.323Z,35.52
2022-08-03T13:09:52.928Z,35.94
2022-08-03T13:12:21.517Z,35.22
2022-08-03T13:14:50.362Z,35.38
2022-08-03T13:17:17.140Z,35.63
2022-08-03T13:19:44.819Z,35.71
2022-08-03T13:22:23.113Z,35.58
2022-08-03T13:24:51.994Z,35.58
2022-08-03T13:28:01.271Z,35.90
2022-08-03T13:30:07.127Z,35.69
2022-08-03T13:32:34.153Z,35.76
2022-08-03T13:35:02.510Z,35.03
2022-08-03T13:37:29.778Z,36.20
2022-08-03T13:39:58.646Z,36.55
2022-08-03T13:42:27.435Z,36.24
2022-08-03T13:44:53.924Z,35.52
2022-08-03T13:47:20.922Z,34.64
2022-08-03T13:49:59.554Z,36.02
2022-08-03T13:52:27.851Z,35.33
2022-08-03T13:54:54.435Z,35.80
2022-08-03T13:58:11.392Z,35.58
2022-08-03T14:00:08.547Z,35.82
2022-08-03T14:02:35.153Z,34.66
2022-08-03T14:05:01.639Z,36.05
2022-08-03T14:07:28.161Z,36.30
2022-08-03T14:09:54.647Z,35.29
2022-08-03T14:12:21.102Z,35.79
2022-08-03T14:14:47.566Z,35.72
2022-08-03T14:17:14.078Z,34.66
2022-08-03T14:19:53.096Z,35.56
2022-08-03T14:22:21.066Z,35.49
2022-08-03T14:24:47.788Z,35.73
2022-08-03T14:27:16.401Z,35.96
2022-08-03T14:29:43.211Z,35.68
2022-08-03T14:32:13.184Z,35.15
2022-08-03T14:34:40.762Z,35.73
2022-08-03T14:37:07.276Z,35.92
2022-08-03T14:42:20.452Z,35.18
2022-08-03T14:44:47.709Z,35.45
2022-08-03T14:47:14.661Z,35.67
2022-08-03T14:50:36.395Z,34.60
2022-08-03T14:52:28.107Z,34.80
2022-08-03T14:54:54.612Z,35.45
2022-08-03T14:57:21.423Z,36.00
2022-08-03T14:59:54.094Z,35.85
2022-08-03T15:02:24.919Z,35.99
2022-08-03T15:04:52.066Z,35.52
2022-08-03T15:07:19.012Z,35.93
2022-08-03T15:09:45.904Z,36.17
2022-08-03T15:12:12.519Z,35.77
2022-08-03T15:14:38.997Z,35.80
2022-08-03T15:17:06.519Z,35.69
2022-08-03T15:20:03.516Z,35.94
2022-08-03T15:22:20.676Z,35.80
2022-08-03T15:24:51.273Z,36.14
2022-08-03T15:27:17.912Z,35.94
2022-08-03T15:30:06.176Z,36.18
2022-08-03T15:32:31.025Z,36.20
2022-08-03T15:34:57.552Z,35.99
2022-08-03T15:37:25.654Z,35.65
2022-08-03T15:40:00.150Z,35.96
2022-08-03T15:42:29.491Z,35.79
2022-08-03T15:44:56.136Z,36.06
2022-08-03T15:47:22.887Z,36.04
2022-08-03T15:49:49.474Z,35.99
2022-08-03T15:52:16.115Z,35.95
2022-08-03T15:54:42.707Z,35.55
2022-08-03T15:57:09.174Z,35.73
2022-08-03T15:59:35.675Z,35.99
2022-08-03T16:02:02.404Z,35.37
2022-08-03T16:04:28.925Z,35.87
2022-08-03T16:06:55.432Z,35.91
2022-08-03T16:09:24.174Z,35.49
2022-08-03T16:12:15.444Z,35.73
2022-08-03T16:14:51.795Z,35.49
2022-08-03T16:17:19.526Z,35.73
2022-08-03T16:19:46.247Z,35.53
2022-08-03T16:22:14.406Z,35.70
2022-08-03T16:24:41.273Z,35.85
2022-08-03T16:27:17.422Z,35.87
2022-08-03T16:29:54.543Z,35.81
2022-08-03T16:32:21.051Z,35.75
2022-08-03T16:34:48.199Z,35.78
2022-08-03T16:37:37.799Z,35.68
2022-08-03T16:40:02.306Z,34.92
2022-08-03T16:42:28.851Z,34.78
2022-08-03T16:44:55.359Z,34.83
2022-08-03T16:47:22.798Z,34.71
2022-08-03T16:49:54.392Z,34.52
2022-08-03T16:52:23.305Z,34.42
2022-08-03T16:54:52.718Z,34.42
2022-08-03T16:57:56.242Z,34.23
2022-08-03T17:00:08.938Z,34.11
2022-08-03T17:02:36.328Z,33.99
2022-08-03T17:05:03.350Z,33.96
2022-08-03T17:07:30.502Z,33.84
2022-08-03T17:09:57.633Z,33.97
2022-08-03T17:12:26.901Z,33.92
2022-08-03T17:14:54.085Z,33.86
2022-08-03T17:17:29.879Z,33.85
2022-08-03T17:20:11.342Z,34.12
2022-08-03T17:22:45.340Z,33.90
2022-08-03T17:25:22.132Z,34.07
2022-08-03T17:28:50.674Z,34.08
2022-08-03T17:31:22.657Z,34.23
2022-08-03T17:33:54.869Z,34.39
2022-08-03T17:36:27.303Z,34.43
2022-08-03T17:39:06.571Z,34.33
2022-08-03T17:41:37.891Z,34.49
2022-08-03T17:44:35.311Z,34.38
2022-08-03T17:47:02.390Z,34.30
2022-08-03T17:49:28.979Z,34.11
2022-08-03T17:52:06.106Z,34.05
2022-08-03T17:58:02.617Z,34.02
2022-08-03T18:00:59.634Z,33.93
2022-08-03T18:03:58.009Z,33.91
2022-08-03T18:06:30.937Z,33.79
2022-08-03T18:09:04.807Z,33.68
2022-08-03T18:14:57.860Z,33.52
2022-08-03T18:17:55.719Z,33.53
2022-08-03T18:20:34.156Z,33.40
2022-08-03T18:23:07.323Z,33.36
2022-08-03T18:25:48.608Z,33.42
2022-08-03T18:28:18.497Z,33.21
2022-08-03T18:36:30.902Z,33.07
2022-08-03T18:39:02.366Z,32.99
2022-08-03T18:41:32.067Z,33.06
2022-08-03T18:44:08.203Z,32.91
2022-08-03T18:47:26.325Z,32.83
2022-08-03T18:50:03.305Z,32.89
2022-08-03T18:52:45.934Z,32.85
2022-08-03T18:58:51.407Z,32.69
2022-08-03T19:01:59.859Z,32.59
2022-08-03T19:04:32.999Z,32.57
2022-08-03T19:07:11.217Z,32.47
2022-08-03T19:09:52.199Z,32.26
2022-08-03T19:12:37.411Z,32.18
2022-08-03T19:15:12.415Z,32.24
2022-08-03T19:17:53.702Z,32.01
2022-08-03T19:20:30.705Z,31.98
2022-08-03T19:22:58.622Z,31.93
2022-08-03T19:25:33.402Z,31.89
2022-08-03T19:28:13.143Z,31.86
2022-08-03T19:30:40.440Z,31.70
2022-08-03T19:33:09.865Z,31.74
2022-08-03T19:35:51.132Z,31.65
2022-08-03T19:38:27.393Z,31.67
2022-08-03T19:40:58.447Z,31.43
2022-08-03T19:43:33.095Z,31.42
2022-08-03T19:46:15.228Z,31.46
2022-08-03T19:48:59.394Z,31.37
2022-08-03T19:51:59.034Z,31.30
2022-08-03T19:54:29.936Z,31.35
2022-08-03T19:57:00.166Z,31.13
2022-08-03T19:59:30.317Z,31.16
2022-08-03T20:01:57.461Z,31.10
2022-08-03T20:04:24.332Z,31.14
2022-08-03T20:06:52.190Z,31.12
2022-08-03T20:09:20.336Z,30.62
2022-08-03T20:11:47.783Z,29.88
2022-08-03T20:14:20.782Z,29.88
2022-08-03T20:16:53.744Z,30.37
2022-08-03T20:19:20.357Z,30.65
2022-08-03T20:21:48.762Z,30.76
2022-08-03T20:24:48.107Z,30.69
2022-08-03T20:27:19.767Z,30.76
2022-08-03T20:30:07.887Z,31.03
2022-08-03T20:32:35.272Z,31.07
2022-08-03T20:35:01.777Z,31.25
2022-08-03T20:37:30.447Z,31.14
2022-08-03T20:39:57.700Z,31.23
2022-08-03T20:42:24.676Z,31.32
2022-08-03T20:47:50.377Z,30.03
2022-08-03T20:50:18.272Z,30.47
2022-08-03T20:52:49.737Z,30.57
2022-08-03T20:58:07.732Z,30.10
2022-08-03T21:00:34.643Z,30.26
2022-08-03T21:03:01.141Z,29.42
2022-08-03T21:05:47.734Z,29.69
2022-08-03T21:08:15.907Z,29.67
2022-08-03T21:10:42.913Z,29.71
2022-08-03T21:13:00.961Z,32.63
2022-08-03T21:13:04.328Z,33.19
2022-08-03T21:13:04.463Z,33.09
2022-08-03T21:13:04.626Z,33.54
2022-08-03T21:13:05.029Z,34.13
2022-08-03T21:13:07.320Z,31.17
2022-08-03T21:13:12.649Z,29.64
2022-08-03T21:13:23.714Z,29.63
2022-08-03T21:16:03.209Z,29.46
2022-08-03T21:18:48.888Z,29.28
2022-08-03T21:21:17.813Z,29.21
2022-08-03T21:23:49.175Z,29.13
2022-08-03T21:26:18.496Z,28.97
2022-08-03T21:28:46.818Z,28.94
2022-08-03T21:31:14.071Z,29.13
2022-08-03T21:33:40.922Z,29.18
2022-08-03T21:36:11.012Z,29.11
2022-08-03T21:38:37.635Z,29.06
2022-08-03T21:41:04.146Z,28.83
2022-08-03T21:43:30.638Z,28.87
2022-08-03T21:46:02.928Z,28.82
2022-08-03T21:48:39.677Z,28.42
2022-08-03T21:51:10.079Z,28.51
2022-08-03T21:54:02.676Z,28.44
2022-08-03T21:56:27.869Z,28.60
2022-08-03T21:58:56.814Z,28.54
2022-08-03T22:01:25.703Z,28.13
2022-08-03T22:03:54.887Z,28.37
2022-08-03T22:06:23.028Z,28.36
2022-08-03T22:08:53.589Z,28.24
2022-08-03T22:11:20.562Z,28.11
2022-08-03T22:13:47.618Z,28.19
2022-08-03T22:16:15.361Z,28.19
2022-08-03T22:18:44.040Z,28.11
2022-08-03T22:21:13.325Z,27.20
2022-08-03T22:23:51.493Z,27.17
2022-08-03T22:26:34.610Z,27.21
2022-08-03T22:29:01.729Z,27.20
2022-08-03T22:31:30.745Z,27.52
2022-08-03T22:34:14.901Z,27.57
2022-08-03T22:36:41.827Z,27.34
2022-08-03T22:39:08.509Z,27.46
2022-08-03T22:41:35.204Z,27.42
2022-08-03T22:44:04.608Z,27.23
2022-08-03T22:46:33.849Z,27.35
2022-08-03T22:49:01.424Z,27.36
2022-08-03T22:51:28.132Z,27.30
2022-08-03T22:53:54.939Z,27.28
2022-08-03T22:56:22.025Z,27.26
2022-08-03T22:58:48.511Z,26.95
2022-08-03T23:01:19.741Z,25.93
2022-08-03T23:03:59.764Z,26.42
2022-08-03T23:06:34.491Z,26.57
2022-08-03T23:09:03.933Z,26.63
2022-08-03T23:11:30.958Z,26.59
2022-08-03T23:13:59.878Z,26.75
2022-08-03T23:16:29.114Z,26.88
2022-08-03T23:18:58.776Z,26.81
2022-08-03T23:21:53.509Z,26.80
2022-08-03T23:24:25.986Z,26.79
2022-08-03T23:26:57.149Z,26.73
2022-08-03T23:29:23.812Z,26.77
2022-08-03T23:31:53.561Z,26.69
2022-08-03T23:34:40.312Z,26.65
2022-08-03T23:37:06.811Z,26.61
2022-08-03T23:39:35.218Z,26.68
2022-08-03T23:42:02.965Z,26.66
2022-08-03T23:44:30.533Z,26.66
2022-08-03T23:46:57.264Z,26.63
2022-08-03T23:49:23.762Z,26.55
2022-08-03T23:51:59.041Z,26.49
2022-08-03T23:55:07.973Z,26.31
2022-08-03T23:57:43.703Z,26.40
